sensor_id;sensor_type;location;lat;lon;timestamp;P1;durP1;ratioP1;P2;durP2;ratioP2
21010;SDS011;10663;42.714;23.274;2023-09-08T00:00:09;12.27;;;10.33;;
21010;SDS011;10663;42.714;23.274;2023-09-08T00:01:40;12.48;;;11.23;;
21010;SDS011;10663;42.714;23.274;2023-09-08T00:03:11;15.32;;;11.38;;
21010;SDS011;10663;42.714;23.274;2023-09-08T00:04:41;12.20;;;11.00;;
21010;SDS011;10663;42.714;23.274;2023-09-08T00:06:12;12.20;;;11.00;;
21010;SDS011;10663;42.714;23.274;2023-09-08T00:07:43;12.90;;;11.57;;
21010;SDS011;10663;42.714;23.274;2023-09-08T00:09:14;14.48;;;11.23;;
21010;SDS011;10663;42.714;23.274;2023-09-08T00:10:45;12.65;;;11.43;;
21010;SDS011;10663;42.714;23.274;2023-09-08T00:12:16;13.75;;;12.15;;
21010;SDS011;10663;42.714;23.274;2023-09-08T00:13:47;15.02;;;12.70;;
21010;SDS011;10663;42.714;23.274;2023-09-08T00:15:20;14.70;;;13.18;;
21010;SDS011;10663;42.714;23.274;2023-09-08T00:16:51;14.17;;;12.77;;
21010;SDS011;10663;42.714;23.274;2023-09-08T00:18:24;15.25;;;13.63;;
21010;SDS011;10663;42.714;23.274;2023-09-08T00:19:56;13.73;;;12.33;;
21010;SDS011;10663;42.714;23.274;2023-09-08T00:21:27;15.20;;;13.50;;
21010;SDS011;10663;42.714;23.274;2023-09-08T00:22:58;14.48;;;12.98;;
21010;SDS011;10663;42.714;23.274;2023-09-08T00:24:29;15.38;;;13.65;;
21010;SDS011;10663;42.714;23.274;2023-09-08T00:26:00;14.37;;;12.30;;
21010;SDS011;10663;42.714;23.274;2023-09-08T00:27:30;14.77;;;13.00;;
21010;SDS011;10663;42.714;23.274;2023-09-08T00:29:02;15.60;;;13.27;;
21010;SDS011;10663;42.714;23.274;2023-09-08T00:30:33;14.25;;;12.38;;
21010;SDS011;10663;42.714;23.274;2023-09-08T00:32:03;14.20;;;12.13;;
21010;SDS011;10663;42.714;23.274;2023-09-08T00:33:34;13.27;;;11.93;;
21010;SDS011;10663;42.714;23.274;2023-09-08T00:35:06;13.68;;;12.27;;
21010;SDS011;10663;42.714;23.274;2023-09-08T00:36:38;13.68;;;12.13;;
21010;SDS011;10663;42.714;23.274;2023-09-08T00:38:09;13.07;;;11.67;;
21010;SDS011;10663;42.714;23.274;2023-09-08T00:39:40;13.63;;;12.05;;
21010;SDS011;10663;42.714;23.274;2023-09-08T00:41:20;13.73;;;12.02;;
21010;SDS011;10663;42.714;23.274;2023-09-08T00:42:54;13.43;;;12.02;;
21010;SDS011;10663;42.714;23.274;2023-09-08T00:44:25;12.43;;;11.15;;
21010;SDS011;10663;42.714;23.274;2023-09-08T00:45:55;13.30;;;11.40;;
21010;SDS011;10663;42.714;23.274;2023-09-08T00:47:29;12.43;;;11.07;;
21010;SDS011;10663;42.714;23.274;2023-09-08T00:49:00;13.23;;;10.73;;
21010;SDS011;10663;42.714;23.274;2023-09-08T00:50:31;14.02;;;11.05;;
21010;SDS011;10663;42.714;23.274;2023-09-08T00:52:47;12.18;;;10.85;;
21010;SDS011;10663;42.714;23.274;2023-09-08T00:54:07;12.70;;;10.48;;
21010;SDS011;10663;42.714;23.274;2023-09-08T00:55:39;12.43;;;10.15;;
21010;SDS011;10663;42.714;23.274;2023-09-08T00:57:11;12.43;;;10.07;;
21010;SDS011;10663;42.714;23.274;2023-09-08T00:58:42;11.43;;;9.60;;
21010;SDS011;10663;42.714;23.274;2023-09-08T01:00:13;10.97;;;9.23;;
21010;SDS011;10663;42.714;23.274;2023-09-08T01:01:44;12.30;;;9.10;;
21010;SDS011;10663;42.714;23.274;2023-09-08T01:03:15;10.25;;;9.25;;
21010;SDS011;10663;42.714;23.274;2023-09-08T01:04:46;10.27;;;9.23;;
21010;SDS011;10663;42.714;23.274;2023-09-08T01:06:17;10.05;;;8.90;;
21010;SDS011;10663;42.714;23.274;2023-09-08T01:07:48;9.32;;;8.25;;
21010;SDS011;10663;42.714;23.274;2023-09-08T01:09:20;12.30;;;9.45;;
21010;SDS011;10663;42.714;23.274;2023-09-08T01:10:51;11.40;;;9.27;;
21010;SDS011;10663;42.714;23.274;2023-09-08T01:12:22;9.63;;;8.50;;
21010;SDS011;10663;42.714;23.274;2023-09-08T01:13:53;10.23;;;8.60;;
21010;SDS011;10663;42.714;23.274;2023-09-08T01:15:24;10.02;;;8.70;;
21010;SDS011;10663;42.714;23.274;2023-09-08T01:16:55;10.20;;;8.30;;
21010;SDS011;10663;42.714;23.274;2023-09-08T01:18:26;10.27;;;8.48;;
21010;SDS011;10663;42.714;23.274;2023-09-08T01:19:57;9.93;;;8.20;;
21010;SDS011;10663;42.714;23.274;2023-09-08T01:25:20;11.47;;;9.17;;
21010;SDS011;10663;42.714;23.274;2023-09-08T01:26:52;11.18;;;8.52;;
21010;SDS011;10663;42.714;23.274;2023-09-08T01:28:23;9.88;;;8.55;;
21010;SDS011;10663;42.714;23.274;2023-09-08T01:29:55;11.60;;;8.20;;
21010;SDS011;10663;42.714;23.274;2023-09-08T01:31:27;9.75;;;8.60;;
21010;SDS011;10663;42.714;23.274;2023-09-08T01:32:57;9.48;;;8.25;;
21010;SDS011;10663;42.714;23.274;2023-09-08T01:34:29;12.38;;;8.00;;
21010;SDS011;10663;42.714;23.274;2023-09-08T01:36:00;9.18;;;7.97;;
21010;SDS011;10663;42.714;23.274;2023-09-08T01:37:32;9.48;;;8.30;;
21010;SDS011;10663;42.714;23.274;2023-09-08T01:39:03;8.63;;;7.65;;
21010;SDS011;10663;42.714;23.274;2023-09-08T01:40:34;9.30;;;7.77;;
21010;SDS011;10663;42.714;23.274;2023-09-08T01:42:05;9.97;;;8.30;;
21010;SDS011;10663;42.714;23.274;2023-09-08T01:43:36;8.82;;;7.22;;
21010;SDS011;10663;42.714;23.274;2023-09-08T01:45:07;9.25;;;8.27;;
21010;SDS011;10663;42.714;23.274;2023-09-08T01:46:38;9.53;;;7.33;;
21010;SDS011;10663;42.714;23.274;2023-09-08T01:48:11;9.75;;;8.30;;
21010;SDS011;10663;42.714;23.274;2023-09-08T01:49:42;8.85;;;7.75;;
21010;SDS011;10663;42.714;23.274;2023-09-08T01:51:13;9.60;;;7.55;;
21010;SDS011;10663;42.714;23.274;2023-09-08T01:52:45;9.02;;;7.53;;
21010;SDS011;10663;42.714;23.274;2023-09-08T01:54:16;9.32;;;7.65;;
21010;SDS011;10663;42.714;23.274;2023-09-08T01:55:47;9.30;;;7.45;;
21010;SDS011;10663;42.714;23.274;2023-09-08T01:57:18;8.65;;;7.75;;
21010;SDS011;10663;42.714;23.274;2023-09-08T02:00:50;9.53;;;7.30;;
21010;SDS011;10663;42.714;23.274;2023-09-08T02:02:21;8.90;;;7.47;;
21010;SDS011;10663;42.714;23.274;2023-09-08T02:03:52;10.50;;;7.60;;
21010;SDS011;10663;42.714;23.274;2023-09-08T02:05:24;9.60;;;7.63;;
21010;SDS011;10663;42.714;23.274;2023-09-08T02:06:57;10.70;;;7.53;;
21010;SDS011;10663;42.714;23.274;2023-09-08T02:08:27;8.68;;;7.50;;
21010;SDS011;10663;42.714;23.274;2023-09-08T02:09:58;8.40;;;7.47;;
21010;SDS011;10663;42.714;23.274;2023-09-08T02:11:29;8.97;;;7.60;;
21010;SDS011;10663;42.714;23.274;2023-09-08T02:13:00;9.45;;;7.57;;
21010;SDS011;10663;42.714;23.274;2023-09-08T02:14:31;9.05;;;7.57;;
21010;SDS011;10663;42.714;23.274;2023-09-08T02:16:02;11.63;;;7.97;;
21010;SDS011;10663;42.714;23.274;2023-09-08T02:17:33;8.02;;;7.22;;
21010;SDS011;10663;42.714;23.274;2023-09-08T02:19:03;8.77;;;7.80;;
21010;SDS011;10663;42.714;23.274;2023-09-08T02:20:34;10.27;;;7.97;;
21010;SDS011;10663;42.714;23.274;2023-09-08T02:22:05;9.48;;;7.80;;
21010;SDS011;10663;42.714;23.274;2023-09-08T02:23:36;10.80;;;8.33;;
21010;SDS011;10663;42.714;23.274;2023-09-08T02:25:07;10.37;;;7.57;;
21010;SDS011;10663;42.714;23.274;2023-09-08T02:26:38;9.90;;;7.85;;
21010;SDS011;10663;42.714;23.274;2023-09-08T02:28:10;12.52;;;8.13;;
21010;SDS011;10663;42.714;23.274;2023-09-08T02:29:41;9.50;;;7.65;;
21010;SDS011;10663;42.714;23.274;2023-09-08T02:31:12;9.02;;;7.78;;
21010;SDS011;10663;42.714;23.274;2023-09-08T02:32:43;9.60;;;8.40;;
21010;SDS011;10663;42.714;23.274;2023-09-08T02:34:15;10.93;;;7.95;;
21010;SDS011;10663;42.714;23.274;2023-09-08T02:35:47;10.60;;;7.93;;
21010;SDS011;10663;42.714;23.274;2023-09-08T02:37:18;9.10;;;8.18;;
21010;SDS011;10663;42.714;23.274;2023-09-08T02:38:49;9.05;;;7.97;;
21010;SDS011;10663;42.714;23.274;2023-09-08T02:40:20;9.17;;;8.27;;
21010;SDS011;10663;42.714;23.274;2023-09-08T02:41:51;11.00;;;8.32;;
21010;SDS011;10663;42.714;23.274;2023-09-08T02:43:22;11.55;;;8.52;;
21010;SDS011;10663;42.714;23.274;2023-09-08T02:44:53;10.23;;;8.30;;
21010;SDS011;10663;42.714;23.274;2023-09-08T02:46:24;10.63;;;8.50;;
21010;SDS011;10663;42.714;23.274;2023-09-08T02:47:55;10.20;;;8.73;;
21010;SDS011;10663;42.714;23.274;2023-09-08T02:49:26;10.43;;;8.35;;
21010;SDS011;10663;42.714;23.274;2023-09-08T02:50:57;10.70;;;9.40;;
21010;SDS011;10663;42.714;23.274;2023-09-08T02:52:28;11.53;;;8.53;;
21010;SDS011;10663;42.714;23.274;2023-09-08T02:53:59;11.23;;;8.70;;
21010;SDS011;10663;42.714;23.274;2023-09-08T02:55:30;11.38;;;9.23;;
21010;SDS011;10663;42.714;23.274;2023-09-08T02:57:01;9.95;;;8.93;;
21010;SDS011;10663;42.714;23.274;2023-09-08T02:58:32;10.98;;;8.93;;
21010;SDS011;10663;42.714;23.274;2023-09-08T03:00:06;10.73;;;9.60;;
21010;SDS011;10663;42.714;23.274;2023-09-08T03:01:38;10.75;;;9.07;;
21010;SDS011;10663;42.714;23.274;2023-09-08T03:03:09;12.07;;;9.25;;
21010;SDS011;10663;42.714;23.274;2023-09-08T03:04:40;10.40;;;8.93;;
21010;SDS011;10663;42.714;23.274;2023-09-08T03:06:11;10.48;;;9.05;;
21010;SDS011;10663;42.714;23.274;2023-09-08T03:07:47;12.40;;;9.13;;
21010;SDS011;10663;42.714;23.274;2023-09-08T03:09:18;9.57;;;8.52;;
21010;SDS011;10663;42.714;23.274;2023-09-08T03:10:49;11.05;;;9.38;;
21010;SDS011;10663;42.714;23.274;2023-09-08T03:12:25;11.32;;;9.32;;
21010;SDS011;10663;42.714;23.274;2023-09-08T03:13:55;10.97;;;9.70;;
21010;SDS011;10663;42.714;23.274;2023-09-08T03:15:26;10.60;;;9.05;;
21010;SDS011;10663;42.714;23.274;2023-09-08T03:16:58;10.70;;;9.27;;
21010;SDS011;10663;42.714;23.274;2023-09-08T03:18:29;11.02;;;9.18;;
21010;SDS011;10663;42.714;23.274;2023-09-08T03:20:00;11.40;;;9.18;;
21010;SDS011;10663;42.714;23.274;2023-09-08T03:21:31;11.05;;;9.60;;
21010;SDS011;10663;42.714;23.274;2023-09-08T03:23:02;14.27;;;10.23;;
21010;SDS011;10663;42.714;23.274;2023-09-08T03:24:33;12.75;;;10.15;;
21010;SDS011;10663;42.714;23.274;2023-09-08T03:26:05;13.13;;;10.05;;
21010;SDS011;10663;42.714;23.274;2023-09-08T03:27:36;11.65;;;9.68;;
21010;SDS011;10663;42.714;23.274;2023-09-08T03:29:08;11.98;;;9.68;;
21010;SDS011;10663;42.714;23.274;2023-09-08T03:30:39;12.95;;;10.02;;
21010;SDS011;10663;42.714;23.274;2023-09-08T03:32:10;13.20;;;10.27;;
21010;SDS011;10663;42.714;23.274;2023-09-08T03:33:41;13.02;;;10.38;;
21010;SDS011;10663;42.714;23.274;2023-09-08T03:35:13;10.75;;;9.63;;
21010;SDS011;10663;42.714;23.274;2023-09-08T03:36:45;12.10;;;10.18;;
21010;SDS011;10663;42.714;23.274;2023-09-08T03:38:17;10.98;;;9.50;;
21010;SDS011;10663;42.714;23.274;2023-09-08T03:39:48;15.18;;;10.45;;
21010;SDS011;10663;42.714;23.274;2023-09-08T03:41:19;13.93;;;10.77;;
21010;SDS011;10663;42.714;23.274;2023-09-08T03:42:50;12.43;;;9.90;;
21010;SDS011;10663;42.714;23.274;2023-09-08T03:44:21;11.82;;;10.43;;
21010;SDS011;10663;42.714;23.274;2023-09-08T03:45:52;12.68;;;9.73;;
21010;SDS011;10663;42.714;23.274;2023-09-08T03:47:23;13.30;;;10.07;;
21010;SDS011;10663;42.714;23.274;2023-09-08T03:48:53;13.00;;;10.90;;
21010;SDS011;10663;42.714;23.274;2023-09-08T03:50:29;13.73;;;10.30;;
21010;SDS011;10663;42.714;23.274;2023-09-08T03:52:01;13.55;;;9.98;;
21010;SDS011;10663;42.714;23.274;2023-09-08T03:53:32;11.40;;;9.57;;
21010;SDS011;10663;42.714;23.274;2023-09-08T03:55:03;11.88;;;10.02;;
21010;SDS011;10663;42.714;23.274;2023-09-08T03:56:35;12.13;;;9.73;;
21010;SDS011;10663;42.714;23.274;2023-09-08T03:58:06;12.52;;;9.95;;
21010;SDS011;10663;42.714;23.274;2023-09-08T03:59:37;14.55;;;10.20;;
21010;SDS011;10663;42.714;23.274;2023-09-08T04:01:08;13.45;;;10.20;;
21010;SDS011;10663;42.714;23.274;2023-09-08T04:02:39;12.27;;;9.80;;
21010;SDS011;10663;42.714;23.274;2023-09-08T04:04:09;13.70;;;10.25;;
21010;SDS011;10663;42.714;23.274;2023-09-08T04:05:40;13.48;;;10.15;;
21010;SDS011;10663;42.714;23.274;2023-09-08T04:07:11;12.45;;;10.48;;
21010;SDS011;10663;42.714;23.274;2023-09-08T04:08:42;13.88;;;10.68;;
21010;SDS011;10663;42.714;23.274;2023-09-08T04:10:13;11.97;;;9.60;;
21010;SDS011;10663;42.714;23.274;2023-09-08T04:11:44;12.77;;;9.73;;
21010;SDS011;10663;42.714;23.274;2023-09-08T04:13:15;12.63;;;11.10;;
21010;SDS011;10663;42.714;23.274;2023-09-08T04:14:46;12.33;;;10.13;;
21010;SDS011;10663;42.714;23.274;2023-09-08T04:16:17;13.30;;;10.57;;
21010;SDS011;10663;42.714;23.274;2023-09-08T04:17:48;11.52;;;10.05;;
21010;SDS011;10663;42.714;23.274;2023-09-08T04:19:19;11.93;;;9.98;;
21010;SDS011;10663;42.714;23.274;2023-09-08T04:20:50;13.27;;;10.40;;
21010;SDS011;10663;42.714;23.274;2023-09-08T04:22:20;17.10;;;10.67;;
21010;SDS011;10663;42.714;23.274;2023-09-08T04:23:52;14.57;;;10.38;;
21010;SDS011;10663;42.714;23.274;2023-09-08T04:25:22;14.90;;;10.02;;
21010;SDS011;10663;42.714;23.274;2023-09-08T04:26:55;12.25;;;10.18;;
21010;SDS011;10663;42.714;23.274;2023-09-08T04:28:26;13.53;;;9.33;;
21010;SDS011;10663;42.714;23.274;2023-09-08T04:29:57;12.25;;;9.48;;
21010;SDS011;10663;42.714;23.274;2023-09-08T04:31:28;14.05;;;9.68;;
21010;SDS011;10663;42.714;23.274;2023-09-08T04:32:59;12.90;;;10.13;;
21010;SDS011;10663;42.714;23.274;2023-09-08T04:34:30;16.23;;;9.52;;
21010;SDS011;10663;42.714;23.274;2023-09-08T04:36:01;15.13;;;9.95;;
21010;SDS011;10663;42.714;23.274;2023-09-08T04:37:32;15.52;;;10.70;;
21010;SDS011;10663;42.714;23.274;2023-09-08T04:39:04;14.88;;;10.23;;
21010;SDS011;10663;42.714;23.274;2023-09-08T04:40:35;13.13;;;9.50;;
21010;SDS011;10663;42.714;23.274;2023-09-08T04:42:06;12.30;;;10.35;;
21010;SDS011;10663;42.714;23.274;2023-09-08T04:43:37;15.80;;;10.70;;
21010;SDS011;10663;42.714;23.274;2023-09-08T04:45:08;12.10;;;9.80;;
21010;SDS011;10663;42.714;23.274;2023-09-08T04:46:41;17.30;;;9.98;;
21010;SDS011;10663;42.714;23.274;2023-09-08T04:48:12;12.43;;;9.75;;
21010;SDS011;10663;42.714;23.274;2023-09-08T04:49:44;14.15;;;10.25;;
21010;SDS011;10663;42.714;23.274;2023-09-08T04:51:15;13.27;;;10.23;;
21010;SDS011;10663;42.714;23.274;2023-09-08T04:52:46;13.73;;;10.10;;
21010;SDS011;10663;42.714;23.274;2023-09-08T04:54:17;12.35;;;9.35;;
21010;SDS011;10663;42.714;23.274;2023-09-08T04:55:48;14.17;;;10.37;;
21010;SDS011;10663;42.714;23.274;2023-09-08T04:57:18;13.15;;;10.25;;
21010;SDS011;10663;42.714;23.274;2023-09-08T04:58:51;14.15;;;10.60;;
21010;SDS011;10663;42.714;23.274;2023-09-08T05:00:23;13.23;;;9.98;;
21010;SDS011;10663;42.714;23.274;2023-09-08T05:01:54;15.75;;;10.52;;
21010;SDS011;10663;42.714;23.274;2023-09-08T05:03:25;16.73;;;10.47;;
21010;SDS011;10663;42.714;23.274;2023-09-08T05:04:56;15.07;;;10.75;;
21010;SDS011;10663;42.714;23.274;2023-09-08T05:06:27;13.57;;;10.30;;
21010;SDS011;10663;42.714;23.274;2023-09-08T05:07:58;15.50;;;11.00;;
21010;SDS011;10663;42.714;23.274;2023-09-08T05:09:30;15.48;;;11.88;;
21010;SDS011;10663;42.714;23.274;2023-09-08T05:11:01;16.95;;;11.48;;
21010;SDS011;10663;42.714;23.274;2023-09-08T05:12:34;16.73;;;11.90;;
21010;SDS011;10663;42.714;23.274;2023-09-08T05:14:05;18.50;;;11.70;;
21010;SDS011;10663;42.714;23.274;2023-09-08T05:15:36;16.52;;;11.88;;
21010;SDS011;10663;42.714;23.274;2023-09-08T05:17:08;17.67;;;12.27;;
21010;SDS011;10663;42.714;23.274;2023-09-08T05:18:39;14.18;;;11.60;;
21010;SDS011;10663;42.714;23.274;2023-09-08T05:20:10;17.13;;;11.93;;
21010;SDS011;10663;42.714;23.274;2023-09-08T05:21:42;16.27;;;11.30;;
21010;SDS011;10663;42.714;23.274;2023-09-08T05:23:14;18.27;;;11.73;;
21010;SDS011;10663;42.714;23.274;2023-09-08T05:24:44;13.93;;;10.63;;
21010;SDS011;10663;42.714;23.274;2023-09-08T05:26:16;18.25;;;11.90;;
21010;SDS011;10663;42.714;23.274;2023-09-08T05:27:47;14.30;;;11.23;;
21010;SDS011;10663;42.714;23.274;2023-09-08T05:29:19;17.77;;;12.63;;
21010;SDS011;10663;42.714;23.274;2023-09-08T05:30:50;16.77;;;11.52;;
21010;SDS011;10663;42.714;23.274;2023-09-08T05:32:22;17.35;;;12.25;;
21010;SDS011;10663;42.714;23.274;2023-09-08T05:33:53;18.55;;;13.10;;
21010;SDS011;10663;42.714;23.274;2023-09-08T05:35:24;25.08;;;17.17;;
21010;SDS011;10663;42.714;23.274;2023-09-08T05:36:55;14.20;;;11.55;;
21010;SDS011;10663;42.714;23.274;2023-09-08T05:38:26;18.02;;;14.38;;
21010;SDS011;10663;42.714;23.274;2023-09-08T05:39:59;18.63;;;12.93;;
21010;SDS011;10663;42.714;23.274;2023-09-08T05:41:30;17.98;;;13.07;;
21010;SDS011;10663;42.714;23.274;2023-09-08T05:43:01;18.88;;;12.70;;
21010;SDS011;10663;42.714;23.274;2023-09-08T05:44:32;21.48;;;13.05;;
21010;SDS011;10663;42.714;23.274;2023-09-08T05:46:04;17.23;;;12.85;;
21010;SDS011;10663;42.714;23.274;2023-09-08T05:47:35;17.02;;;12.35;;
21010;SDS011;10663;42.714;23.274;2023-09-08T05:49:07;17.98;;;12.50;;
21010;SDS011;10663;42.714;23.274;2023-09-08T05:50:38;17.45;;;11.80;;
21010;SDS011;10663;42.714;23.274;2023-09-08T05:52:11;16.47;;;11.10;;
21010;SDS011;10663;42.714;23.274;2023-09-08T05:53:42;15.88;;;11.40;;
21010;SDS011;10663;42.714;23.274;2023-09-08T05:55:14;16.52;;;10.85;;
21010;SDS011;10663;42.714;23.274;2023-09-08T05:56:45;15.67;;;11.13;;
21010;SDS011;10663;42.714;23.274;2023-09-08T05:58:16;14.05;;;11.13;;
21010;SDS011;10663;42.714;23.274;2023-09-08T05:59:47;15.43;;;11.00;;
21010;SDS011;10663;42.714;23.274;2023-09-08T06:01:18;17.97;;;12.17;;
21010;SDS011;10663;42.714;23.274;2023-09-08T06:02:49;15.68;;;11.40;;
21010;SDS011;10663;42.714;23.274;2023-09-08T06:04:21;13.82;;;9.80;;
21010;SDS011;10663;42.714;23.274;2023-09-08T06:05:52;15.60;;;10.70;;
21010;SDS011;10663;42.714;23.274;2023-09-08T06:07:25;16.02;;;10.00;;
21010;SDS011;10663;42.714;23.274;2023-09-08T06:08:55;12.65;;;9.65;;
21010;SDS011;10663;42.714;23.274;2023-09-08T06:10:27;13.05;;;9.80;;
21010;SDS011;10663;42.714;23.274;2023-09-08T06:11:58;14.52;;;10.23;;
21010;SDS011;10663;42.714;23.274;2023-09-08T06:13:29;14.70;;;10.75;;
21010;SDS011;10663;42.714;23.274;2023-09-08T06:15:01;14.18;;;10.10;;
21010;SDS011;10663;42.714;23.274;2023-09-08T06:16:35;16.10;;;9.48;;
21010;SDS011;10663;42.714;23.274;2023-09-08T06:18:08;13.85;;;9.38;;
21010;SDS011;10663;42.714;23.274;2023-09-08T06:19:39;14.03;;;9.97;;
21010;SDS011;10663;42.714;23.274;2023-09-08T06:21:10;12.77;;;8.57;;
21010;SDS011;10663;42.714;23.274;2023-09-08T06:22:41;10.93;;;7.38;;
21010;SDS011;10663;42.714;23.274;2023-09-08T06:24:14;11.60;;;8.15;;
21010;SDS011;10663;42.714;23.274;2023-09-08T06:25:45;14.73;;;8.88;;
21010;SDS011;10663;42.714;23.274;2023-09-08T06:27:16;10.27;;;7.65;;
21010;SDS011;10663;42.714;23.274;2023-09-08T06:28:47;11.40;;;7.15;;
21010;SDS011;10663;42.714;23.274;2023-09-08T06:30:19;10.90;;;7.35;;
21010;SDS011;10663;42.714;23.274;2023-09-08T06:31:49;11.13;;;7.05;;
21010;SDS011;10663;42.714;23.274;2023-09-08T06:33:21;10.73;;;7.88;;
21010;SDS011;10663;42.714;23.274;2023-09-08T06:34:55;9.45;;;7.97;;
21010;SDS011;10663;42.714;23.274;2023-09-08T06:36:26;8.60;;;6.75;;
21010;SDS011;10663;42.714;23.274;2023-09-08T06:37:57;9.80;;;7.35;;
21010;SDS011;10663;42.714;23.274;2023-09-08T06:39:29;10.55;;;7.28;;
21010;SDS011;10663;42.714;23.274;2023-09-08T06:41:00;8.65;;;6.60;;
21010;SDS011;10663;42.714;23.274;2023-09-08T06:42:31;9.23;;;6.72;;
21010;SDS011;10663;42.714;23.274;2023-09-08T06:44:12;9.05;;;6.50;;
21010;SDS011;10663;42.714;23.274;2023-09-08T06:45:46;10.57;;;7.18;;
21010;SDS011;10663;42.714;23.274;2023-09-08T06:47:19;9.13;;;7.00;;
21010;SDS011;10663;42.714;23.274;2023-09-08T06:48:50;10.57;;;7.20;;
21010;SDS011;10663;42.714;23.274;2023-09-08T06:50:22;11.13;;;7.05;;
21010;SDS011;10663;42.714;23.274;2023-09-08T06:51:53;10.63;;;7.85;;
21010;SDS011;10663;42.714;23.274;2023-09-08T06:53:24;9.32;;;7.63;;
21010;SDS011;10663;42.714;23.274;2023-09-08T06:54:55;10.13;;;7.32;;
21010;SDS011;10663;42.714;23.274;2023-09-08T06:56:26;8.03;;;7.20;;
21010;SDS011;10663;42.714;23.274;2023-09-08T06:57:57;8.63;;;6.70;;
21010;SDS011;10663;42.714;23.274;2023-09-08T06:59:28;8.63;;;6.97;;
21010;SDS011;10663;42.714;23.274;2023-09-08T07:00:59;7.95;;;6.35;;
21010;SDS011;10663;42.714;23.274;2023-09-08T07:02:30;8.48;;;6.10;;
21010;SDS011;10663;42.714;23.274;2023-09-08T07:04:01;8.33;;;5.80;;
21010;SDS011;10663;42.714;23.274;2023-09-08T07:05:32;8.02;;;5.20;;
21010;SDS011;10663;42.714;23.274;2023-09-08T07:07:03;7.10;;;5.15;;
21010;SDS011;10663;42.714;23.274;2023-09-08T07:08:38;9.32;;;5.70;;
21010;SDS011;10663;42.714;23.274;2023-09-08T07:10:09;7.40;;;5.35;;
21010;SDS011;10663;42.714;23.274;2023-09-08T07:11:41;7.00;;;5.70;;
21010;SDS011;10663;42.714;23.274;2023-09-08T07:13:12;7.30;;;5.53;;
21010;SDS011;10663;42.714;23.274;2023-09-08T07:14:43;6.22;;;4.90;;
21010;SDS011;10663;42.714;23.274;2023-09-08T07:16:13;6.35;;;5.22;;
21010;SDS011;10663;42.714;23.274;2023-09-08T07:17:44;6.90;;;5.38;;
21010;SDS011;10663;42.714;23.274;2023-09-08T07:19:15;6.70;;;5.47;;
21010;SDS011;10663;42.714;23.274;2023-09-08T07:20:47;7.97;;;5.63;;
21010;SDS011;10663;42.714;23.274;2023-09-08T07:22:22;7.43;;;5.55;;
21010;SDS011;10663;42.714;23.274;2023-09-08T07:23:53;7.95;;;5.60;;
21010;SDS011;10663;42.714;23.274;2023-09-08T07:25:24;6.17;;;5.43;;
21010;SDS011;10663;42.714;23.274;2023-09-08T07:26:55;7.55;;;5.47;;
21010;SDS011;10663;42.714;23.274;2023-09-08T07:28:27;6.38;;;5.30;;
21010;SDS011;10663;42.714;23.274;2023-09-08T07:30:01;8.73;;;5.57;;
21010;SDS011;10663;42.714;23.274;2023-09-08T07:31:32;6.30;;;4.95;;
21010;SDS011;10663;42.714;23.274;2023-09-08T07:33:04;5.68;;;5.10;;
21010;SDS011;10663;42.714;23.274;2023-09-08T07:34:36;5.45;;;4.65;;
21010;SDS011;10663;42.714;23.274;2023-09-08T07:36:07;4.97;;;4.37;;
21010;SDS011;10663;42.714;23.274;2023-09-08T07:37:42;5.50;;;4.30;;
21010;SDS011;10663;42.714;23.274;2023-09-08T07:39:13;5.83;;;4.73;;
21010;SDS011;10663;42.714;23.274;2023-09-08T07:40:44;7.20;;;5.32;;
21010;SDS011;10663;42.714;23.274;2023-09-08T07:42:16;6.88;;;5.35;;
21010;SDS011;10663;42.714;23.274;2023-09-08T07:43:47;6.40;;;4.88;;
21010;SDS011;10663;42.714;23.274;2023-09-08T07:45:23;5.60;;;4.78;;
21010;SDS011;10663;42.714;23.274;2023-09-08T07:46:54;6.03;;;4.97;;
21010;SDS011;10663;42.714;23.274;2023-09-08T07:48:26;7.38;;;4.85;;
21010;SDS011;10663;42.714;23.274;2023-09-08T07:51:57;5.45;;;4.53;;
21010;SDS011;10663;42.714;23.274;2023-09-08T07:53:28;6.63;;;4.90;;
21010;SDS011;10663;42.714;23.274;2023-09-08T07:54:59;6.18;;;4.78;;
21010;SDS011;10663;42.714;23.274;2023-09-08T07:56:30;5.25;;;4.63;;
21010;SDS011;10663;42.714;23.274;2023-09-08T07:58:01;5.97;;;4.60;;
21010;SDS011;10663;42.714;23.274;2023-09-08T07:59:34;5.30;;;4.40;;
21010;SDS011;10663;42.714;23.274;2023-09-08T08:01:05;6.22;;;4.63;;
21010;SDS011;10663;42.714;23.274;2023-09-08T08:02:36;6.00;;;4.80;;
21010;SDS011;10663;42.714;23.274;2023-09-08T08:04:09;5.88;;;4.85;;
21010;SDS011;10663;42.714;23.274;2023-09-08T08:05:39;6.90;;;4.50;;
21010;SDS011;10663;42.714;23.274;2023-09-08T08:07:11;5.73;;;4.63;;
21010;SDS011;10663;42.714;23.274;2023-09-08T08:08:42;5.37;;;4.20;;
21010;SDS011;10663;42.714;23.274;2023-09-08T08:10:13;5.18;;;4.30;;
21010;SDS011;10663;42.714;23.274;2023-09-08T08:11:43;6.97;;;4.40;;
21010;SDS011;10663;42.714;23.274;2023-09-08T08:13:15;6.32;;;4.38;;
21010;SDS011;10663;42.714;23.274;2023-09-08T08:14:45;6.27;;;4.53;;
21010;SDS011;10663;42.714;23.274;2023-09-08T08:16:16;5.50;;;4.75;;
21010;SDS011;10663;42.714;23.274;2023-09-08T08:17:48;6.23;;;4.40;;
21010;SDS011;10663;42.714;23.274;2023-09-08T08:19:19;5.95;;;5.10;;
21010;SDS011;10663;42.714;23.274;2023-09-08T08:20:49;7.28;;;4.90;;
21010;SDS011;10663;42.714;23.274;2023-09-08T08:22:20;5.57;;;4.80;;
21010;SDS011;10663;42.714;23.274;2023-09-08T08:23:51;6.85;;;3.92;;
21010;SDS011;10663;42.714;23.274;2023-09-08T08:25:23;5.03;;;4.30;;
21010;SDS011;10663;42.714;23.274;2023-09-08T08:26:54;5.15;;;4.40;;
21010;SDS011;10663;42.714;23.274;2023-09-08T08:28:24;4.90;;;4.40;;
21010;SDS011;10663;42.714;23.274;2023-09-08T08:29:55;5.83;;;4.47;;
21010;SDS011;10663;42.714;23.274;2023-09-08T08:31:28;7.03;;;4.82;;
21010;SDS011;10663;42.714;23.274;2023-09-08T08:32:59;5.95;;;4.90;;
21010;SDS011;10663;42.714;23.274;2023-09-08T08:34:30;5.10;;;4.50;;
21010;SDS011;10663;42.714;23.274;2023-09-08T08:36:01;4.97;;;4.40;;
21010;SDS011;10663;42.714;23.274;2023-09-08T08:37:32;7.65;;;4.50;;
21010;SDS011;10663;42.714;23.274;2023-09-08T08:39:03;5.43;;;4.38;;
21010;SDS011;10663;42.714;23.274;2023-09-08T08:40:37;5.80;;;4.00;;
21010;SDS011;10663;42.714;23.274;2023-09-08T08:42:10;5.85;;;4.47;;
21010;SDS011;10663;42.714;23.274;2023-09-08T08:43:41;4.75;;;3.80;;
21010;SDS011;10663;42.714;23.274;2023-09-08T08:45:15;6.53;;;4.68;;
21010;SDS011;10663;42.714;23.274;2023-09-08T08:46:49;6.57;;;4.40;;
21010;SDS011;10663;42.714;23.274;2023-09-08T08:48:20;5.35;;;4.00;;
21010;SDS011;10663;42.714;23.274;2023-09-08T08:49:52;4.72;;;4.22;;
21010;SDS011;10663;42.714;23.274;2023-09-08T08:51:23;5.85;;;4.28;;
21010;SDS011;10663;42.714;23.274;2023-09-08T08:52:55;5.35;;;4.22;;
21010;SDS011;10663;42.714;23.274;2023-09-08T08:54:26;4.50;;;4.00;;
21010;SDS011;10663;42.714;23.274;2023-09-08T08:55:56;4.07;;;3.67;;
21010;SDS011;10663;42.714;23.274;2023-09-08T08:57:30;5.10;;;4.20;;
21010;SDS011;10663;42.714;23.274;2023-09-08T08:59:01;5.70;;;4.50;;
21010;SDS011;10663;42.714;23.274;2023-09-08T09:00:36;5.47;;;4.30;;
21010;SDS011;10663;42.714;23.274;2023-09-08T09:02:08;5.47;;;4.30;;